createdAt,value
2024-03-29T00:00:14.989Z,12.70
2024-03-29T00:02:44.560Z,11.90
2024-03-29T00:05:14.209Z,11.90
2024-03-29T00:07:43.893Z,11.80
2024-03-29T00:10:13.456Z,12.30
2024-03-29T00:12:43.021Z,15.60
2024-03-29T00:15:12.880Z,15.00
2024-03-29T00:17:42.468Z,39.50
2024-03-29T00:20:13.456Z,44.00
2024-03-29T00:22:43.061Z,39.80
2024-03-29T00:25:12.740Z,35.50
2024-03-29T00:27:42.710Z,35.30
2024-03-29T00:30:13.364Z,35.30
2024-03-29T00:32:42.944Z,31.60
2024-03-29T00:35:15.097Z,29.80
2024-03-29T00:37:44.652Z,28.50
2024-03-29T00:40:15.163Z,29.90
2024-03-29T00:42:44.807Z,28.70
2024-03-29T00:45:25.631Z,28.50
2024-03-29T00:48:02.217Z,25.30
2024-03-29T00:50:32.062Z,24.30
2024-03-29T00:53:01.693Z,24.30
2024-03-29T00:55:31.295Z,25.10
2024-03-29T00:58:00.878Z,23.20
2024-03-29T01:00:30.433Z,23.50
2024-03-29T01:03:00.483Z,21.60
2024-03-29T01:05:30.112Z,21.40
2024-03-29T01:07:59.667Z,21.70
2024-03-29T01:10:29.243Z,20.60
2024-03-29T01:12:58.828Z,20.30
2024-03-29T01:15:28.415Z,20.50
2024-03-29T01:17:58.043Z,18.10
2024-03-29T01:20:27.623Z,18.00
2024-03-29T01:22:57.217Z,17.90
2024-03-29T01:25:28.294Z,17.30
2024-03-29T01:27:57.869Z,17.70
2024-03-29T01:30:27.859Z,16.50
2024-03-29T01:32:57.445Z,16.00
2024-03-29T01:35:27.005Z,14.90
2024-03-29T01:37:56.591Z,15.80
2024-03-29T01:40:26.224Z,14.00
2024-03-29T01:42:57.233Z,14.60
2024-03-29T01:45:26.805Z,13.10
2024-03-29T01:47:56.477Z,13.80
2024-03-29T01:50:26.088Z,12.40
2024-03-29T01:52:55.713Z,12.40
2024-03-29T01:55:25.379Z,12.20
2024-03-29T01:57:55.022Z,11.20
2024-03-29T02:00:24.689Z,10.50
2024-03-29T02:02:54.264Z,10.10
2024-03-29T02:05:23.838Z,10.60
2024-03-29T02:07:53.434Z,9.40
2024-03-29T02:10:22.996Z,9.90
2024-03-29T02:12:52.576Z,9.40
2024-03-29T02:15:22.184Z,9.70
2024-03-29T02:17:52.125Z,8.80
2024-03-29T02:20:33.774Z,8.90
2024-03-29T02:23:12.450Z,8.70
2024-03-29T02:25:42.283Z,8.10
2024-03-29T02:28:11.920Z,7.80
2024-03-29T02:30:41.500Z,7.30
2024-03-29T02:33:11.211Z,7.50
2024-03-29T02:35:40.775Z,7.70
2024-03-29T02:38:10.328Z,7.30
2024-03-29T02:40:39.924Z,7.20
2024-03-29T02:43:09.566Z,7.30
2024-03-29T02:45:39.157Z,6.50
2024-03-29T02:48:09.783Z,6.30
2024-03-29T02:50:39.500Z,6.50
2024-03-29T02:53:09.142Z,5.50
2024-03-29T02:55:38.695Z,6.00
2024-03-29T02:58:08.356Z,6.10
2024-03-29T03:00:39.404Z,6.30
2024-03-29T03:03:10.199Z,5.60
2024-03-29T03:05:39.773Z,5.00
2024-03-29T03:08:27.723Z,5.00
2024-03-29T03:11:01.002Z,5.20
2024-03-29T03:15:59.402Z,4.20
2024-03-29T03:18:28.983Z,4.40
2024-03-29T03:20:58.982Z,3.60
2024-03-29T03:23:29.054Z,4.70
2024-03-29T03:25:59.056Z,4.40
2024-03-29T03:28:28.624Z,4.70
2024-03-29T03:30:58.213Z,4.10
2024-03-29T03:33:27.853Z,3.90
2024-03-29T03:35:57.451Z,3.80
2024-03-29T03:38:27.105Z,3.40
2024-03-29T03:40:56.728Z,3.70
2024-03-29T03:43:26.285Z,3.30
2024-03-29T03:45:55.864Z,3.30
2024-03-29T03:48:25.910Z,3.70
2024-03-29T03:50:55.529Z,3.20
2024-03-29T03:53:25.142Z,3.50
2024-03-29T03:55:54.727Z,3.30
2024-03-29T03:58:24.453Z,3.40
2024-03-29T04:00:54.197Z,3.00
2024-03-29T04:03:23.846Z,2.50
2024-03-29T04:05:53.421Z,3.10
2024-03-29T04:08:23.012Z,2.80
2024-03-29T04:10:52.579Z,2.70
2024-03-29T04:13:22.221Z,2.40
2024-03-29T04:15:51.805Z,2.40
2024-03-29T04:18:21.370Z,2.70
2024-03-29T04:20:58.256Z,2.20
2024-03-29T04:23:27.873Z,2.20
2024-03-29T04:25:57.550Z,2.10
2024-03-29T04:28:27.388Z,2.50
2024-03-29T04:30:57.773Z,2.40
2024-03-29T04:33:27.406Z,2.00
2024-03-29T04:35:58.628Z,2.10
2024-03-29T04:38:28.227Z,2.40
2024-03-29T04:40:58.199Z,4.10
2024-03-29T04:43:28.340Z,9.20
2024-03-29T04:46:06.042Z,17.30
2024-03-29T04:48:35.641Z,9.70
2024-03-29T04:51:05.805Z,45.70
2024-03-29T04:53:36.669Z,42.20
2024-03-29T04:56:07.403Z,43.20
2024-03-29T04:58:37.011Z,38.60
2024-03-29T05:01:07.897Z,36.50
2024-03-29T05:03:37.476Z,35.40
2024-03-29T05:06:07.407Z,35.20
2024-03-29T05:08:38.179Z,34.40
2024-03-29T05:11:08.694Z,33.90
2024-03-29T05:13:39.399Z,33.40
2024-03-29T05:16:10.139Z,30.00
2024-03-29T05:18:39.704Z,29.70
2024-03-29T05:21:10.283Z,29.40
2024-03-29T05:23:39.903Z,27.70
2024-03-29T05:26:09.479Z,29.60
2024-03-29T05:28:39.225Z,26.30
2024-03-29T05:31:14.963Z,28.30
2024-03-29T05:33:45.848Z,26.10
2024-03-29T05:36:15.575Z,25.60
2024-03-29T05:38:45.195Z,25.50
2024-03-29T05:41:14.792Z,25.40
2024-03-29T05:43:44.427Z,25.50
2024-03-29T05:46:14.074Z,24.10
2024-03-29T05:48:43.661Z,23.50
2024-03-29T05:51:13.212Z,23.00
2024-03-29T05:53:42.847Z,22.30
2024-03-29T05:56:12.465Z,22.50
2024-03-29T05:58:42.660Z,21.20
2024-03-29T06:01:12.304Z,21.50
2024-03-29T06:03:41.974Z,22.20
2024-03-29T06:06:18.152Z,21.00
2024-03-29T06:08:47.952Z,21.20
2024-03-29T06:11:17.579Z,20.50
2024-03-29T06:14:04.764Z,20.30
2024-03-29T06:16:52.190Z,19.70
2024-03-29T06:19:21.768Z,20.00
2024-03-29T06:21:51.332Z,20.10
2024-03-29T06:24:21.226Z,18.90
2024-03-29T06:26:50.893Z,18.40
2024-03-29T06:29:20.461Z,17.80
2024-03-29T06:31:50.024Z,17.90
2024-03-29T06:34:19.576Z,17.80
2024-03-29T06:36:49.205Z,18.30
2024-03-29T06:39:18.846Z,16.50
2024-03-29T06:41:48.504Z,18.00
2024-03-29T06:44:18.117Z,15.90
2024-03-29T06:46:49.738Z,15.60
2024-03-29T06:49:20.424Z,15.50
2024-03-29T06:51:50.054Z,16.90
2024-03-29T06:54:22.999Z,16.00
2024-03-29T06:56:52.603Z,14.70
2024-03-29T06:59:22.367Z,14.50
2024-03-29T07:01:52.825Z,14.30
2024-03-29T07:04:22.504Z,13.90
2024-03-29T07:06:52.821Z,15.00
2024-03-29T07:09:22.920Z,14.60
2024-03-29T07:11:53.166Z,13.10
2024-03-29T07:14:24.342Z,13.80
2024-03-29T07:16:54.295Z,12.90
2024-03-29T07:19:23.956Z,14.00
2024-03-29T07:21:54.837Z,11.20
2024-03-29T07:24:24.458Z,10.50
2024-03-29T07:26:54.048Z,8.10
2024-03-29T07:29:23.614Z,9.60
2024-03-29T07:31:53.214Z,8.20
2024-03-29T07:34:23.337Z,8.50
2024-03-29T07:36:53.029Z,8.20
2024-03-29T07:39:23.616Z,8.00
2024-03-29T07:41:53.185Z,8.40
2024-03-29T07:44:23.577Z,7.80
2024-03-29T07:46:53.203Z,8.30
2024-03-29T07:49:23.107Z,7.20
2024-03-29T07:51:52.694Z,7.70
2024-03-29T07:54:22.258Z,7.10
2024-03-29T07:56:52.274Z,7.20
2024-03-29T07:59:22.723Z,6.40
2024-03-29T08:01:53.306Z,7.50
2024-03-29T08:04:23.798Z,7.00
2024-03-29T08:06:55.940Z,7.10
2024-03-29T08:09:26.003Z,7.10
2024-03-29T08:11:55.572Z,7.30
2024-03-29T08:14:26.825Z,7.10
2024-03-29T08:16:56.547Z,7.10
2024-03-29T08:19:26.152Z,7.10
2024-03-29T08:21:55.920Z,6.90
2024-03-29T08:24:25.604Z,7.00
2024-03-29T08:26:55.250Z,6.60
2024-03-29T08:29:25.050Z,6.80
2024-03-29T08:31:54.658Z,5.80
2024-03-29T08:34:24.236Z,6.20
2024-03-29T08:36:54.163Z,6.20
2024-03-29T08:39:23.778Z,30.80
2024-03-29T08:41:53.336Z,35.00
2024-03-29T08:44:23.920Z,31.90
2024-03-29T08:46:56.027Z,36.20
2024-03-29T08:49:25.740Z,31.40
2024-03-29T08:51:55.613Z,29.10
2024-03-29T08:54:25.482Z,29.40
2024-03-29T08:56:55.200Z,28.20
2024-03-29T08:59:24.820Z,27.70
2024-03-29T09:01:54.597Z,26.10
2024-03-29T09:04:25.553Z,26.80
2024-03-29T09:06:55.219Z,26.00
2024-03-29T09:09:24.825Z,24.70
2024-03-29T09:11:54.563Z,25.30
2024-03-29T09:14:24.969Z,24.90
2024-03-29T09:16:54.608Z,24.10
2024-03-29T09:19:25.301Z,24.10
2024-03-29T09:21:55.387Z,22.60
2024-03-29T09:24:26.771Z,22.10
2024-03-29T09:26:56.423Z,21.40
2024-03-29T09:29:26.056Z,21.10
2024-03-29T09:31:55.684Z,20.90
2024-03-29T09:34:25.344Z,20.50
2024-03-29T09:36:54.920Z,20.50
2024-03-29T09:39:24.537Z,19.90
2024-03-29T09:41:54.638Z,20.10
2024-03-29T09:44:25.223Z,20.40
2024-03-29T09:46:55.487Z,18.70
2024-03-29T09:49:26.400Z,18.70
2024-03-29T09:51:56.438Z,18.20
2024-03-29T09:54:26.030Z,18.70
2024-03-29T09:56:55.660Z,17.80
2024-03-29T09:59:25.375Z,16.90
2024-03-29T10:01:55.658Z,16.20
2024-03-29T10:04:26.607Z,17.00
2024-03-29T10:06:56.227Z,17.40
2024-03-29T10:09:30.451Z,16.90
2024-03-29T10:12:00.062Z,16.60
2024-03-29T10:14:31.211Z,15.80
2024-03-29T10:17:01.363Z,15.70
2024-03-29T10:19:30.926Z,15.70
2024-03-29T10:22:09.681Z,15.00
2024-03-29T10:24:39.468Z,15.40
2024-03-29T10:27:09.089Z,15.00
2024-03-29T10:29:38.652Z,14.20
2024-03-29T10:32:09.906Z,14.00
2024-03-29T10:34:39.490Z,14.60
2024-03-29T10:37:09.048Z,14.00
2024-03-29T10:39:38.649Z,13.70
2024-03-29T10:42:10.250Z,13.80
2024-03-29T10:44:40.176Z,13.60
2024-03-29T10:47:09.761Z,13.20
2024-03-29T10:49:39.341Z,12.30
2024-03-29T10:52:09.059Z,13.00
2024-03-29T10:54:38.671Z,12.60
2024-03-29T10:57:11.329Z,11.60
2024-03-29T10:59:42.687Z,12.10
2024-03-29T11:02:15.424Z,11.30
2024-03-29T11:04:44.990Z,10.60
2024-03-29T11:07:17.455Z,11.30
2024-03-29T11:09:47.031Z,11.40
2024-03-29T11:12:16.610Z,11.20
2024-03-29T11:14:50.622Z,10.10
2024-03-29T11:17:20.266Z,11.00
2024-03-29T11:19:49.857Z,10.70
2024-03-29T11:22:19.423Z,10.00
2024-03-29T11:24:49.325Z,10.30
2024-03-29T11:27:20.362Z,10.00
2024-03-29T11:29:51.511Z,9.20
2024-03-29T11:32:39.373Z,10.30
2024-03-29T11:35:15.400Z,9.20
2024-03-29T11:37:44.955Z,9.40
2024-03-29T11:40:15.126Z,9.40
2024-03-29T11:42:49.831Z,10.00
2024-03-29T11:45:19.452Z,10.20
2024-03-29T11:47:49.074Z,9.10
2024-03-29T11:50:18.868Z,9.10
2024-03-29T11:52:48.672Z,9.70
2024-03-29T11:55:19.294Z,10.60
2024-03-29T11:57:48.876Z,9.20
2024-03-29T12:00:19.912Z,9.70
2024-03-29T12:02:49.592Z,9.10
2024-03-29T12:05:19.200Z,8.70
2024-03-29T12:07:50.054Z,10.70
2024-03-29T12:10:20.281Z,22.40
2024-03-29T12:12:51.282Z,28.60
2024-03-29T12:15:21.163Z,31.30
2024-03-29T12:17:57.443Z,30.60
2024-03-29T12:20:27.178Z,26.40
2024-03-29T12:22:56.795Z,25.40
2024-03-29T12:25:27.146Z,21.80
2024-03-29T12:27:56.756Z,20.90
2024-03-29T12:30:26.320Z,20.50
2024-03-29T12:33:04.602Z,20.90
2024-03-29T12:35:34.221Z,19.90
2024-03-29T12:38:04.612Z,19.50
2024-03-29T12:40:36.362Z,18.80
2024-03-29T12:43:08.446Z,18.30
2024-03-29T12:45:38.892Z,18.20
2024-03-29T12:48:13.852Z,17.40
2024-03-29T12:50:44.950Z,16.70
2024-03-29T12:53:15.229Z,16.10
2024-03-29T12:55:46.512Z,15.20
2024-03-29T12:58:17.146Z,16.50
2024-03-29T13:00:46.794Z,16.50
2024-03-29T13:03:16.378Z,14.50
2024-03-29T13:05:46.029Z,14.70
2024-03-29T13:08:16.588Z,14.10
2024-03-29T13:10:46.368Z,13.30
2024-03-29T13:13:16.866Z,12.90
2024-03-29T13:15:48.326Z,12.80
2024-03-29T13:18:19.342Z,13.20
2024-03-29T13:20:49.021Z,12.40
2024-03-29T13:23:18.595Z,12.00
2024-03-29T13:25:48.669Z,10.80
2024-03-29T13:28:18.289Z,11.30
2024-03-29T13:30:49.112Z,11.00
2024-03-29T13:33:18.813Z,10.90
2024-03-29T13:35:49.037Z,10.50
2024-03-29T13:38:22.417Z,10.30
2024-03-29T13:40:52.132Z,10.80
2024-03-29T13:43:23.284Z,10.30
2024-03-29T13:45:53.526Z,9.60
2024-03-29T13:48:23.342Z,8.90
2024-03-29T13:50:52.944Z,8.70
2024-03-29T13:53:23.450Z,9.10
2024-03-29T13:55:53.047Z,8.40
2024-03-29T13:58:22.808Z,9.10
2024-03-29T14:00:55.281Z,8.60
2024-03-29T14:03:24.861Z,7.90
2024-03-29T14:05:54.736Z,8.20
2024-03-29T14:08:24.400Z,7.70
2024-03-29T14:10:54.268Z,8.50
2024-03-29T14:13:24.466Z,7.40
2024-03-29T14:15:54.074Z,7.40
2024-03-29T14:18:24.416Z,7.60
2024-03-29T14:20:53.985Z,6.90
2024-03-29T14:23:25.956Z,6.80
2024-03-29T14:25:55.833Z,6.40
2024-03-29T14:28:25.497Z,6.30
2024-03-29T14:30:55.137Z,6.00
2024-03-29T14:33:25.125Z,6.40
2024-03-29T14:35:54.794Z,6.30
2024-03-29T14:38:24.510Z,5.90
2024-03-29T14:40:54.617Z,6.40
2024-03-29T14:43:24.327Z,5.90
2024-03-29T14:45:53.931Z,6.00
2024-03-29T14:48:25.713Z,5.30
2024-03-29T14:50:57.002Z,5.50
2024-03-29T14:53:26.862Z,5.30
2024-03-29T14:56:06.510Z,5.30
2024-03-29T14:58:42.778Z,4.80
2024-03-29T15:01:12.393Z,5.80
2024-03-29T15:03:42.026Z,5.10
2024-03-29T15:06:11.673Z,4.70
2024-03-29T15:08:41.411Z,4.90
2024-03-29T15:11:11.336Z,5.00
2024-03-29T15:13:40.966Z,4.90
2024-03-29T15:16:10.694Z,4.70
2024-03-29T15:18:40.290Z,4.80
2024-03-29T15:21:11.047Z,4.30
2024-03-29T15:23:40.630Z,7.50
2024-03-29T15:26:10.357Z,13.10
2024-03-29T15:28:57.720Z,23.90
2024-03-29T15:31:28.275Z,26.10
2024-03-29T15:33:57.859Z,25.90
2024-03-29T15:36:27.459Z,22.10
2024-03-29T15:39:01.908Z,19.90
2024-03-29T15:41:32.397Z,18.20
2024-03-29T15:44:02.070Z,17.70
2024-03-29T15:46:31.737Z,17.70
2024-03-29T15:49:01.343Z,17.30
2024-03-29T15:51:31.054Z,16.90
2024-03-29T15:54:02.238Z,16.60
2024-03-29T15:56:35.582Z,16.30
2024-03-29T16:01:34.010Z,15.30
2024-03-29T16:04:03.652Z,16.30
2024-03-29T16:06:33.485Z,15.50
2024-03-29T16:09:03.264Z,15.80
2024-03-29T16:11:37.498Z,14.30
2024-03-29T16:14:07.134Z,14.40
2024-03-29T16:16:36.777Z,17.00
2024-03-29T16:19:06.352Z,17.90
2024-03-29T16:21:35.955Z,27.70
2024-03-29T16:24:05.663Z,33.40
2024-03-29T16:26:35.459Z,34.00
2024-03-29T16:29:10.596Z,28.60
2024-03-29T16:31:40.187Z,27.00
2024-03-29T16:34:09.830Z,26.40
2024-03-29T16:36:39.526Z,24.40
2024-03-29T16:39:09.215Z,24.70
2024-03-29T16:41:39.092Z,23.20
2024-03-29T16:44:09.248Z,22.80
2024-03-29T16:46:39.016Z,22.60
2024-03-29T16:49:08.626Z,21.50
2024-03-29T16:51:38.207Z,21.10
2024-03-29T16:54:07.901Z,21.00
2024-03-29T16:56:37.603Z,18.60
2024-03-29T16:59:07.640Z,20.30
2024-03-29T17:01:37.204Z,19.50
2024-03-29T17:04:06.979Z,18.90
2024-03-29T17:06:37.785Z,17.70
2024-03-29T17:09:08.014Z,17.80
2024-03-29T17:11:37.612Z,23.70
2024-03-29T17:14:07.223Z,37.20
2024-03-29T17:16:37.406Z,40.90
2024-03-29T17:19:07.046Z,39.60
2024-03-29T17:21:36.671Z,37.30
2024-03-29T17:24:07.036Z,35.00
2024-03-29T17:26:36.612Z,32.00
2024-03-29T17:29:06.211Z,30.90
2024-03-29T17:31:53.141Z,31.50
2024-03-29T17:34:30.147Z,30.70
2024-03-29T17:36:59.717Z,29.20
2024-03-29T17:39:29.330Z,30.80
2024-03-29T17:41:59.030Z,28.90
2024-03-29T17:44:28.709Z,29.20
2024-03-29T17:46:58.394Z,28.30
2024-03-29T17:49:29.092Z,28.20
2024-03-29T17:51:58.723Z,28.00
2024-03-29T17:54:28.304Z,26.70
2024-03-29T17:56:57.850Z,26.50
2024-03-29T17:59:27.453Z,25.00
2024-03-29T18:01:57.021Z,25.70
2024-03-29T18:04:26.611Z,25.20
2024-03-29T18:06:56.167Z,25.70
2024-03-29T18:09:25.757Z,24.40
2024-03-29T18:11:55.395Z,24.10
2024-03-29T18:14:25.046Z,23.50
2024-03-29T18:16:55.304Z,21.20
2024-03-29T18:19:24.854Z,25.50
2024-03-29T18:21:55.640Z,42.60
2024-03-29T18:24:25.369Z,52.90
2024-03-29T18:26:54.956Z,57.20
2024-03-29T18:29:24.548Z,52.90
2024-03-29T18:31:54.405Z,48.20
2024-03-29T18:34:24.092Z,43.50
2024-03-29T18:36:53.669Z,36.80
2024-03-29T18:39:24.710Z,36.30
2024-03-29T18:41:54.647Z,36.80
2024-03-29T18:44:24.326Z,41.80
2024-03-29T18:46:53.945Z,45.40
2024-03-29T18:49:23.813Z,48.30
2024-03-29T18:51:53.396Z,48.60
2024-03-29T18:54:23.027Z,49.00
2024-03-29T18:56:53.124Z,45.10
2024-03-29T18:59:23.089Z,42.80
2024-03-29T19:01:52.670Z,39.20
2024-03-29T19:04:22.335Z,39.40
2024-03-29T19:06:52.210Z,39.10
2024-03-29T19:09:21.901Z,37.80
2024-03-29T19:11:53.659Z,36.90
2024-03-29T19:14:24.212Z,35.70
2024-03-29T19:16:53.874Z,36.30
2024-03-29T19:19:23.620Z,35.60
2024-03-29T19:21:53.295Z,36.70
2024-03-29T19:24:25.095Z,35.40
2024-03-29T19:26:55.135Z,34.10
2024-03-29T19:29:25.241Z,34.30
2024-03-29T19:31:55.080Z,34.00
2024-03-29T19:34:24.861Z,34.10
2024-03-29T19:36:59.844Z,31.70
2024-03-29T19:39:29.443Z,30.70
2024-03-29T19:41:59.078Z,30.80
2024-03-29T19:44:28.725Z,31.20
2024-03-29T19:46:59.296Z,30.20
2024-03-29T19:49:29.111Z,29.60
2024-03-29T19:51:58.707Z,28.70
2024-03-29T19:54:29.364Z,28.20
2024-03-29T19:56:58.972Z,28.00
2024-03-29T19:59:28.584Z,27.90
2024-03-29T20:01:58.246Z,27.80
2024-03-29T20:04:30.469Z,27.20
2024-03-29T20:07:00.061Z,26.80
2024-03-29T20:09:30.672Z,26.10
2024-03-29T20:12:01.842Z,26.80
2024-03-29T20:14:32.128Z,25.70
2024-03-29T20:17:02.798Z,25.20
2024-03-29T20:19:33.116Z,25.00
2024-03-29T20:22:04.051Z,24.90
2024-03-29T20:24:38.284Z,23.40
2024-03-29T20:27:08.869Z,24.90
2024-03-29T20:29:38.421Z,22.40
2024-03-29T20:32:09.273Z,22.70
2024-03-29T20:34:39.620Z,22.90
2024-03-29T20:37:10.258Z,22.70
2024-03-29T20:39:39.825Z,21.60
2024-03-29T20:42:09.609Z,20.80
2024-03-29T20:44:39.360Z,21.70
2024-03-29T20:47:09.492Z,21.50
2024-03-29T20:49:39.371Z,20.00
2024-03-29T20:52:09.133Z,20.30
2024-03-29T20:54:38.734Z,19.60
2024-03-29T20:57:09.421Z,19.90
2024-03-29T20:59:39.225Z,19.30
2024-03-29T21:02:38.241Z,18.70
2024-03-29T21:05:26.446Z,18.60
2024-03-29T21:07:56.117Z,18.30
2024-03-29T21:10:25.845Z,19.70
2024-03-29T21:12:55.657Z,62.50
2024-03-29T21:15:25.256Z,59.90
2024-03-29T21:17:58.199Z,59.20
2024-03-29T21:20:28.052Z,48.50
2024-03-29T21:22:59.366Z,40.70
2024-03-29T21:25:29.004Z,40.90
2024-03-29T21:28:02.895Z,40.70
2024-03-29T21:30:33.320Z,39.30
2024-03-29T21:33:02.905Z,38.10
2024-03-29T21:35:34.743Z,37.20
2024-03-29T21:38:04.573Z,35.30
2024-03-29T21:40:34.178Z,35.80
2024-03-29T21:43:03.860Z,36.10
2024-03-29T21:45:33.443Z,34.40
2024-03-29T21:48:03.141Z,34.70
2024-03-29T21:50:32.728Z,32.50
2024-03-29T21:53:03.972Z,33.00
2024-03-29T21:55:33.560Z,30.40
2024-03-29T21:58:06.548Z,31.60
2024-03-29T22:00:37.392Z,30.60
2024-03-29T22:03:07.277Z,29.10
2024-03-29T22:05:38.628Z,29.70
2024-03-29T22:10:38.452Z,27.50
2024-03-29T22:13:09.215Z,27.90
2024-03-29T22:15:38.903Z,28.70
2024-03-29T22:18:08.604Z,26.20
2024-03-29T22:20:38.201Z,26.80
2024-03-29T22:23:07.956Z,26.70
2024-03-29T22:25:37.732Z,27.70
2024-03-29T22:28:07.718Z,26.50
2024-03-29T22:30:37.415Z,25.60
2024-03-29T22:33:07.227Z,25.00
2024-03-29T22:35:38.218Z,25.30
2024-03-29T22:38:07.790Z,24.10
2024-03-29T22:40:37.351Z,22.50
2024-03-29T22:43:07.088Z,23.40
2024-03-29T22:45:36.690Z,23.90
2024-03-29T22:48:07.273Z,28.70
2024-03-29T22:50:37.077Z,71.50
2024-03-29T22:53:07.270Z,115.40
2024-03-29T22:55:36.872Z,63.80
2024-03-29T22:58:06.535Z,70.70
2024-03-29T23:00:36.128Z,74.70
2024-03-29T23:03:06.401Z,72.40
2024-03-29T23:05:35.993Z,71.00
2024-03-29T23:08:06.097Z,66.90
2024-03-29T23:10:35.731Z,62.40
2024-03-29T23:13:05.647Z,60.30
2024-03-29T23:15:35.272Z,57.70
2024-03-29T23:18:05.466Z,58.70
2024-03-29T23:20:35.054Z,58.60
2024-03-29T23:23:06.267Z,56.00
2024-03-29T23:25:35.839Z,52.70
2024-03-29T23:28:05.976Z,50.60
2024-03-29T23:30:35.588Z,48.40
2024-03-29T23:33:05.803Z,48.20
2024-03-29T23:35:35.398Z,45.70
2024-03-29T23:38:05.408Z,45.80
2024-03-29T23:40:35.125Z,44.20
2024-03-29T23:43:05.098Z,40.50
2024-03-29T23:45:34.670Z,40.40
2024-03-29T23:48:04.619Z,40.40
2024-03-29T23:50:34.196Z,40.20
2024-03-29T23:53:03.902Z,37.30
2024-03-29T23:55:33.480Z,36.40
2024-03-29T23:58:03.226Z,34.30
